sensor_id;sensor_type;location;lat;lon;timestamp;temperature;humidity
22966;DHT22;11649;48.090;9.754;2023-05-29T00:01:38;12.10;98.70
22966;DHT22;11649;48.090;9.754;2023-05-29T00:04:06;12.10;98.70
22966;DHT22;11649;48.090;9.754;2023-05-29T00:06:33;12.70;98.70
22966;DHT22;11649;48.090;9.754;2023-05-29T00:09:00;12.20;97.80
22966;DHT22;11649;48.090;9.754;2023-05-29T00:11:27;12.80;98.70
22966;DHT22;11649;48.090;9.754;2023-05-29T00:13:54;12.90;99.20
22966;DHT22;11649;48.090;9.754;2023-05-29T00:16:21;12.10;98.80
22966;DHT22;11649;48.090;9.754;2023-05-29T00:18:48;12.10;99.10
22966;DHT22;11649;48.090;9.754;2023-05-29T00:21:15;12.00;99.30
22966;DHT22;11649;48.090;9.754;2023-05-29T00:23:42;12.40;99.30
22966;DHT22;11649;48.090;9.754;2023-05-29T00:26:11;12.20;99.60
22966;DHT22;11649;48.090;9.754;2023-05-29T00:28:39;11.90;99.70
22966;DHT22;11649;48.090;9.754;2023-05-29T00:31:06;11.90;99.90
22966;DHT22;11649;48.090;9.754;2023-05-29T00:33:33;11.80;99.90
22966;DHT22;11649;48.090;9.754;2023-05-29T00:35:59;11.80;99.90
22966;DHT22;11649;48.090;9.754;2023-05-29T00:38:26;11.70;99.90
22966;DHT22;11649;48.090;9.754;2023-05-29T00:40:53;11.70;99.90
22966;DHT22;11649;48.090;9.754;2023-05-29T00:43:20;11.60;99.90
22966;DHT22;11649;48.090;9.754;2023-05-29T00:45:47;11.60;99.90
22966;DHT22;11649;48.090;9.754;2023-05-29T00:48:14;11.50;99.90
22966;DHT22;11649;48.090;9.754;2023-05-29T00:50:41;11.50;99.90
22966;DHT22;11649;48.090;9.754;2023-05-29T00:53:08;11.30;99.90
22966;DHT22;11649;48.090;9.754;2023-05-29T00:55:35;12.30;99.90
22966;DHT22;11649;48.090;9.754;2023-05-29T00:58:03;11.30;99.90
22966;DHT22;11649;48.090;9.754;2023-05-29T01:00:31;11.40;99.90
22966;DHT22;11649;48.090;9.754;2023-05-29T01:03:00;11.70;99.90
22966;DHT22;11649;48.090;9.754;2023-05-29T01:05:29;11.90;99.90
22966;DHT22;11649;48.090;9.754;2023-05-29T01:07:57;13.50;99.90
22966;DHT22;11649;48.090;9.754;2023-05-29T01:10:24;12.40;99.90
22966;DHT22;11649;48.090;9.754;2023-05-29T01:13:03;11.30;99.90
22966;DHT22;11649;48.090;9.754;2023-05-29T01:16:06;11.40;99.90
22966;DHT22;11649;48.090;9.754;2023-05-29T01:18:42;11.40;99.90
22966;DHT22;11649;48.090;9.754;2023-05-29T01:24:26;11.40;99.90
22966;DHT22;11649;48.090;9.754;2023-05-29T01:27:03;11.40;99.90
22966;DHT22;11649;48.090;9.754;2023-05-29T01:29:34;11.40;99.90
22966;DHT22;11649;48.090;9.754;2023-05-29T01:32:01;11.40;99.90
22966;DHT22;11649;48.090;9.754;2023-05-29T01:34:29;11.40;99.90
22966;DHT22;11649;48.090;9.754;2023-05-29T01:36:56;11.30;99.90
22966;DHT22;11649;48.090;9.754;2023-05-29T01:39:23;11.30;99.90
22966;DHT22;11649;48.090;9.754;2023-05-29T01:41:51;11.20;99.90
22966;DHT22;11649;48.090;9.754;2023-05-29T01:44:20;11.20;99.90
22966;DHT22;11649;48.090;9.754;2023-05-29T01:46:47;11.20;99.90
22966;DHT22;11649;48.090;9.754;2023-05-29T01:49:16;11.20;99.90
22966;DHT22;11649;48.090;9.754;2023-05-29T01:51:43;11.20;99.90
22966;DHT22;11649;48.090;9.754;2023-05-29T01:54:10;11.20;99.90
22966;DHT22;11649;48.090;9.754;2023-05-29T01:56:38;11.20;99.90
22966;DHT22;11649;48.090;9.754;2023-05-29T01:59:06;11.20;99.90
22966;DHT22;11649;48.090;9.754;2023-05-29T02:01:33;11.20;99.90
22966;DHT22;11649;48.090;9.754;2023-05-29T02:04:00;11.20;99.90
22966;DHT22;11649;48.090;9.754;2023-05-29T02:06:27;11.20;99.90
22966;DHT22;11649;48.090;9.754;2023-05-29T02:08:53;11.20;99.90
22966;DHT22;11649;48.090;9.754;2023-05-29T02:11:20;11.20;99.90
22966;DHT22;11649;48.090;9.754;2023-05-29T02:13:48;11.20;99.90
22966;DHT22;11649;48.090;9.754;2023-05-29T02:16:15;11.20;99.90
22966;DHT22;11649;48.090;9.754;2023-05-29T02:18:42;11.20;99.90
22966;DHT22;11649;48.090;9.754;2023-05-29T02:21:10;11.20;99.90
22966;DHT22;11649;48.090;9.754;2023-05-29T02:23:36;11.20;99.90
22966;DHT22;11649;48.090;9.754;2023-05-29T02:26:03;11.20;99.90
22966;DHT22;11649;48.090;9.754;2023-05-29T02:28:30;11.10;99.90
22966;DHT22;11649;48.090;9.754;2023-05-29T02:30:57;11.10;99.90
22966;DHT22;11649;48.090;9.754;2023-05-29T02:33:24;11.10;99.90
22966;DHT22;11649;48.090;9.754;2023-05-29T02:35:50;11.10;99.90
22966;DHT22;11649;48.090;9.754;2023-05-29T02:38:17;11.10;99.90
22966;DHT22;11649;48.090;9.754;2023-05-29T02:40:44;11.20;99.90
22966;DHT22;11649;48.090;9.754;2023-05-29T02:43:12;12.70;99.90
22966;DHT22;11649;48.090;9.754;2023-05-29T02:45:39;11.30;99.90
22966;DHT22;11649;48.090;9.754;2023-05-29T02:48:06;11.20;99.90
22966;DHT22;11649;48.090;9.754;2023-05-29T02:50:33;11.10;99.90
22966;DHT22;11649;48.090;9.754;2023-05-29T02:53:00;11.10;99.90
22966;DHT22;11649;48.090;9.754;2023-05-29T02:55:27;11.10;99.90
22966;DHT22;11649;48.090;9.754;2023-05-29T02:57:53;11.00;99.90
22966;DHT22;11649;48.090;9.754;2023-05-29T03:00:21;11.10;99.90
22966;DHT22;11649;48.090;9.754;2023-05-29T03:02:48;10.90;99.90
22966;DHT22;11649;48.090;9.754;2023-05-29T03:05:15;10.80;99.90
22966;DHT22;11649;48.090;9.754;2023-05-29T03:07:43;10.90;99.90
22966;DHT22;11649;48.090;9.754;2023-05-29T03:10:11;10.90;99.90
22966;DHT22;11649;48.090;9.754;2023-05-29T03:12:38;10.90;99.90
22966;DHT22;11649;48.090;9.754;2023-05-29T03:15:06;10.90;99.90
22966;DHT22;11649;48.090;9.754;2023-05-29T03:17:33;10.90;99.90
22966;DHT22;11649;48.090;9.754;2023-05-29T03:20:00;11.00;99.90
22966;DHT22;11649;48.090;9.754;2023-05-29T03:22:27;11.00;99.90
22966;DHT22;11649;48.090;9.754;2023-05-29T03:24:54;11.40;99.90
22966;DHT22;11649;48.090;9.754;2023-05-29T03:27:21;11.00;99.90
22966;DHT22;11649;48.090;9.754;2023-05-29T03:29:47;11.00;99.90
22966;DHT22;11649;48.090;9.754;2023-05-29T03:32:14;11.50;99.90
22966;DHT22;11649;48.090;9.754;2023-05-29T03:34:41;11.10;99.90
22966;DHT22;11649;48.090;9.754;2023-05-29T03:37:08;11.10;99.90
22966;DHT22;11649;48.090;9.754;2023-05-29T03:39:35;11.10;99.90
22966;DHT22;11649;48.090;9.754;2023-05-29T03:42:02;11.10;99.90
22966;DHT22;11649;48.090;9.754;2023-05-29T03:44:29;11.10;99.90
22966;DHT22;11649;48.090;9.754;2023-05-29T03:46:56;11.00;99.90
22966;DHT22;11649;48.090;9.754;2023-05-29T03:49:23;10.90;99.90
22966;DHT22;11649;48.090;9.754;2023-05-29T03:51:50;10.90;99.90
22966;DHT22;11649;48.090;9.754;2023-05-29T03:54:17;10.90;99.90
22966;DHT22;11649;48.090;9.754;2023-05-29T03:56:44;10.80;99.90
22966;DHT22;11649;48.090;9.754;2023-05-29T03:59:11;10.90;99.90
22966;DHT22;11649;48.090;9.754;2023-05-29T04:01:37;10.90;99.90
22966;DHT22;11649;48.090;9.754;2023-05-29T04:04:04;10.90;99.90
22966;DHT22;11649;48.090;9.754;2023-05-29T04:06:34;10.90;99.90
22966;DHT22;11649;48.090;9.754;2023-05-29T04:09:06;10.90;99.90
22966;DHT22;11649;48.090;9.754;2023-05-29T04:11:33;11.00;99.90
22966;DHT22;11649;48.090;9.754;2023-05-29T04:14:01;11.30;99.90
22966;DHT22;11649;48.090;9.754;2023-05-29T04:16:28;10.90;99.90
22966;DHT22;11649;48.090;9.754;2023-05-29T04:18:55;10.90;99.90
22966;DHT22;11649;48.090;9.754;2023-05-29T04:21:22;11.00;99.90
22966;DHT22;11649;48.090;9.754;2023-05-29T04:23:49;11.00;99.90
22966;DHT22;11649;48.090;9.754;2023-05-29T04:26:15;11.00;99.90
22966;DHT22;11649;48.090;9.754;2023-05-29T04:28:42;11.20;99.90
22966;DHT22;11649;48.090;9.754;2023-05-29T04:31:10;11.20;99.90
22966;DHT22;11649;48.090;9.754;2023-05-29T04:33:40;11.30;99.90
22966;DHT22;11649;48.090;9.754;2023-05-29T04:36:07;11.40;99.90
22966;DHT22;11649;48.090;9.754;2023-05-29T04:38:35;11.50;99.90
22966;DHT22;11649;48.090;9.754;2023-05-29T04:41:03;11.60;99.90
22966;DHT22;11649;48.090;9.754;2023-05-29T04:43:30;11.60;99.90
22966;DHT22;11649;48.090;9.754;2023-05-29T04:45:57;11.70;99.90
22966;DHT22;11649;48.090;9.754;2023-05-29T04:48:25;12.00;99.90
22966;DHT22;11649;48.090;9.754;2023-05-29T04:50:52;12.20;99.90
22966;DHT22;11649;48.090;9.754;2023-05-29T04:53:19;12.00;99.90
22966;DHT22;11649;48.090;9.754;2023-05-29T04:55:46;12.00;99.90
22966;DHT22;11649;48.090;9.754;2023-05-29T04:58:12;12.00;99.90
22966;DHT22;11649;48.090;9.754;2023-05-29T05:00:39;12.00;99.90
22966;DHT22;11649;48.090;9.754;2023-05-29T05:03:06;12.40;99.90
22966;DHT22;11649;48.090;9.754;2023-05-29T05:05:33;12.00;99.90
22966;DHT22;11649;48.090;9.754;2023-05-29T05:08:00;12.90;99.90
22966;DHT22;11649;48.090;9.754;2023-05-29T05:10:26;13.20;99.90
22966;DHT22;11649;48.090;9.754;2023-05-29T05:12:53;12.50;99.90
22966;DHT22;11649;48.090;9.754;2023-05-29T05:15:20;12.70;99.90
22966;DHT22;11649;48.090;9.754;2023-05-29T05:17:47;13.10;99.90
22966;DHT22;11649;48.090;9.754;2023-05-29T05:20:14;12.70;99.90
22966;DHT22;11649;48.090;9.754;2023-05-29T05:22:41;12.80;99.90
22966;DHT22;11649;48.090;9.754;2023-05-29T05:25:08;12.80;99.90
22966;DHT22;11649;48.090;9.754;2023-05-29T05:27:35;13.70;99.90
22966;DHT22;11649;48.090;9.754;2023-05-29T05:30:05;12.80;99.90
22966;DHT22;11649;48.090;9.754;2023-05-29T05:32:34;13.10;99.90
22966;DHT22;11649;48.090;9.754;2023-05-29T05:35:01;13.10;99.90
22966;DHT22;11649;48.090;9.754;2023-05-29T05:37:30;13.20;99.90
22966;DHT22;11649;48.090;9.754;2023-05-29T05:39:57;13.30;99.90
22966;DHT22;11649;48.090;9.754;2023-05-29T05:42:24;13.30;99.90
22966;DHT22;11649;48.090;9.754;2023-05-29T05:44:52;13.30;99.90
22966;DHT22;11649;48.090;9.754;2023-05-29T05:47:19;13.40;99.90
22966;DHT22;11649;48.090;9.754;2023-05-29T05:49:45;13.50;99.90
22966;DHT22;11649;48.090;9.754;2023-05-29T05:52:12;13.60;99.90
22966;DHT22;11649;48.090;9.754;2023-05-29T05:54:39;13.60;99.90
22966;DHT22;11649;48.090;9.754;2023-05-29T05:57:05;13.70;99.90
22966;DHT22;11649;48.090;9.754;2023-05-29T05:59:32;14.10;99.90
22966;DHT22;11649;48.090;9.754;2023-05-29T06:01:59;13.90;99.90
22966;DHT22;11649;48.090;9.754;2023-05-29T06:04:26;14.20;99.90
22966;DHT22;11649;48.090;9.754;2023-05-29T06:06:53;14.30;99.90
22966;DHT22;11649;48.090;9.754;2023-05-29T06:09:20;14.20;99.90
22966;DHT22;11649;48.090;9.754;2023-05-29T06:11:48;14.30;99.90
22966;DHT22;11649;48.090;9.754;2023-05-29T06:14:15;14.40;99.90
22966;DHT22;11649;48.090;9.754;2023-05-29T06:16:43;14.50;99.40
22966;DHT22;11649;48.090;9.754;2023-05-29T06:19:10;14.60;99.90
22966;DHT22;11649;48.090;9.754;2023-05-29T06:21:36;14.50;99.90
22966;DHT22;11649;48.090;9.754;2023-05-29T06:24:04;14.90;99.90
22966;DHT22;11649;48.090;9.754;2023-05-29T06:26:31;14.70;99.90
22966;DHT22;11649;48.090;9.754;2023-05-29T06:28:57;14.80;99.90
22966;DHT22;11649;48.090;9.754;2023-05-29T06:31:24;14.90;99.90
22966;DHT22;11649;48.090;9.754;2023-05-29T06:33:51;15.10;99.90
22966;DHT22;11649;48.090;9.754;2023-05-29T06:36:18;14.80;98.90
22966;DHT22;11649;48.090;9.754;2023-05-29T06:38:47;15.50;99.10
22966;DHT22;11649;48.090;9.754;2023-05-29T06:41:15;15.60;97.60
22966;DHT22;11649;48.090;9.754;2023-05-29T06:43:42;15.40;97.40
22966;DHT22;11649;48.090;9.754;2023-05-29T06:46:10;15.50;96.20
22966;DHT22;11649;48.090;9.754;2023-05-29T06:48:37;15.50;95.90
22966;DHT22;11649;48.090;9.754;2023-05-29T06:51:04;15.50;96.10
22966;DHT22;11649;48.090;9.754;2023-05-29T06:53:35;15.60;95.50
22966;DHT22;11649;48.090;9.754;2023-05-29T06:56:03;16.30;95.00
22966;DHT22;11649;48.090;9.754;2023-05-29T06:58:30;15.70;95.30
22966;DHT22;11649;48.090;9.754;2023-05-29T07:00:58;15.90;95.10
22966;DHT22;11649;48.090;9.754;2023-05-29T07:03:28;15.80;94.40
22966;DHT22;11649;48.090;9.754;2023-05-29T07:05:56;15.90;93.90
22966;DHT22;11649;48.090;9.754;2023-05-29T07:08:23;16.00;94.40
22966;DHT22;11649;48.090;9.754;2023-05-29T07:10:51;16.20;93.90
22966;DHT22;11649;48.090;9.754;2023-05-29T07:13:17;16.20;95.00
22966;DHT22;11649;48.090;9.754;2023-05-29T07:15:45;16.20;94.50
22966;DHT22;11649;48.090;9.754;2023-05-29T07:18:12;16.30;93.00
22966;DHT22;11649;48.090;9.754;2023-05-29T07:20:39;16.50;92.90
22966;DHT22;11649;48.090;9.754;2023-05-29T07:23:06;16.50;93.60
22966;DHT22;11649;48.090;9.754;2023-05-29T07:25:34;16.40;94.40
22966;DHT22;11649;48.090;9.754;2023-05-29T07:28:00;16.70;93.20
22966;DHT22;11649;48.090;9.754;2023-05-29T07:30:46;16.80;94.60
22966;DHT22;11649;48.090;9.754;2023-05-29T07:33:13;16.90;94.80
22966;DHT22;11649;48.090;9.754;2023-05-29T07:35:40;17.00;95.20
22966;DHT22;11649;48.090;9.754;2023-05-29T07:38:07;17.50;93.30
22966;DHT22;11649;48.090;9.754;2023-05-29T07:40:33;17.30;95.50
22966;DHT22;11649;48.090;9.754;2023-05-29T07:43:00;17.40;94.40
22966;DHT22;11649;48.090;9.754;2023-05-29T07:45:27;17.50;93.50
22966;DHT22;11649;48.090;9.754;2023-05-29T07:47:54;17.60;93.90
22966;DHT22;11649;48.090;9.754;2023-05-29T07:50:21;17.70;93.40
22966;DHT22;11649;48.090;9.754;2023-05-29T07:52:48;17.90;92.00
22966;DHT22;11649;48.090;9.754;2023-05-29T07:55:15;17.90;89.70
22966;DHT22;11649;48.090;9.754;2023-05-29T07:57:41;17.90;90.40
22966;DHT22;11649;48.090;9.754;2023-05-29T08:00:09;18.00;87.40
22966;DHT22;11649;48.090;9.754;2023-05-29T08:02:39;18.00;87.60
22966;DHT22;11649;48.090;9.754;2023-05-29T08:05:07;18.10;85.40
22966;DHT22;11649;48.090;9.754;2023-05-29T08:07:35;18.10;87.80
22966;DHT22;11649;48.090;9.754;2023-05-29T08:10:02;18.20;84.20
22966;DHT22;11649;48.090;9.754;2023-05-29T08:12:28;18.20;86.00
22966;DHT22;11649;48.090;9.754;2023-05-29T08:14:55;18.30;84.20
22966;DHT22;11649;48.090;9.754;2023-05-29T08:17:22;18.40;83.80
22966;DHT22;11649;48.090;9.754;2023-05-29T08:19:49;18.40;82.20
22966;DHT22;11649;48.090;9.754;2023-05-29T08:22:15;18.50;82.80
22966;DHT22;11649;48.090;9.754;2023-05-29T08:24:42;18.50;82.00
22966;DHT22;11649;48.090;9.754;2023-05-29T08:27:09;18.60;87.40
22966;DHT22;11649;48.090;9.754;2023-05-29T08:29:36;18.70;83.30
22966;DHT22;11649;48.090;9.754;2023-05-29T08:32:03;18.80;84.50
22966;DHT22;11649;48.090;9.754;2023-05-29T08:34:30;18.90;80.90
22966;DHT22;11649;48.090;9.754;2023-05-29T08:36:57;18.90;81.20
22966;DHT22;11649;48.090;9.754;2023-05-29T08:39:24;18.90;81.50
22966;DHT22;11649;48.090;9.754;2023-05-29T08:42:00;18.80;83.80
22966;DHT22;11649;48.090;9.754;2023-05-29T08:44:30;19.20;81.50
22966;DHT22;11649;48.090;9.754;2023-05-29T08:47:01;19.30;82.70
22966;DHT22;11649;48.090;9.754;2023-05-29T08:49:42;19.40;82.40
22966;DHT22;11649;48.090;9.754;2023-05-29T08:52:14;19.50;78.20
22966;DHT22;11649;48.090;9.754;2023-05-29T08:54:45;19.50;75.90
22966;DHT22;11649;48.090;9.754;2023-05-29T08:57:12;19.50;78.00
22966;DHT22;11649;48.090;9.754;2023-05-29T08:59:43;19.50;76.40
22966;DHT22;11649;48.090;9.754;2023-05-29T09:02:11;19.70;77.80
22966;DHT22;11649;48.090;9.754;2023-05-29T09:04:39;19.70;76.80
22966;DHT22;11649;48.090;9.754;2023-05-29T09:07:07;19.70;75.00
22966;DHT22;11649;48.090;9.754;2023-05-29T09:09:35;19.80;76.20
22966;DHT22;11649;48.090;9.754;2023-05-29T09:12:02;19.80;78.00
22966;DHT22;11649;48.090;9.754;2023-05-29T09:14:34;19.90;77.40
22966;DHT22;11649;48.090;9.754;2023-05-29T09:17:02;19.90;75.80
22966;DHT22;11649;48.090;9.754;2023-05-29T09:19:39;20.00;73.40
22966;DHT22;11649;48.090;9.754;2023-05-29T09:22:18;20.10;74.80
22966;DHT22;11649;48.090;9.754;2023-05-29T09:24:49;20.20;74.70
22966;DHT22;11649;48.090;9.754;2023-05-29T09:27:18;20.20;69.10
22966;DHT22;11649;48.090;9.754;2023-05-29T09:29:45;20.30;74.70
22966;DHT22;11649;48.090;9.754;2023-05-29T09:32:15;20.40;69.10
22966;DHT22;11649;48.090;9.754;2023-05-29T09:34:43;20.40;68.40
22966;DHT22;11649;48.090;9.754;2023-05-29T09:37:11;20.40;70.20
22966;DHT22;11649;48.090;9.754;2023-05-29T09:39:45;20.50;63.60
22966;DHT22;11649;48.090;9.754;2023-05-29T09:42:15;20.50;63.10
22966;DHT22;11649;48.090;9.754;2023-05-29T09:44:45;20.60;63.10
22966;DHT22;11649;48.090;9.754;2023-05-29T09:47:33;20.60;65.30
22966;DHT22;11649;48.090;9.754;2023-05-29T09:50:00;20.60;61.00
22966;DHT22;11649;48.090;9.754;2023-05-29T09:52:29;20.70;57.80
22966;DHT22;11649;48.090;9.754;2023-05-29T09:54:57;20.80;63.00
22966;DHT22;11649;48.090;9.754;2023-05-29T09:57:24;20.80;60.20
22966;DHT22;11649;48.090;9.754;2023-05-29T09:59:52;20.90;60.80
22966;DHT22;11649;48.090;9.754;2023-05-29T10:02:20;21.00;62.30
22966;DHT22;11649;48.090;9.754;2023-05-29T10:04:48;21.10;61.50
22966;DHT22;11649;48.090;9.754;2023-05-29T10:07:25;21.20;56.50
22966;DHT22;11649;48.090;9.754;2023-05-29T10:09:59;21.20;56.80
22966;DHT22;11649;48.090;9.754;2023-05-29T10:12:29;21.20;57.60
22966;DHT22;11649;48.090;9.754;2023-05-29T10:14:59;21.10;53.40
22966;DHT22;11649;48.090;9.754;2023-05-29T10:17:32;21.10;56.70
22966;DHT22;11649;48.090;9.754;2023-05-29T10:20:02;21.20;52.30
22966;DHT22;11649;48.090;9.754;2023-05-29T10:22:40;21.20;55.10
22966;DHT22;11649;48.090;9.754;2023-05-29T10:25:13;21.30;54.90
22966;DHT22;11649;48.090;9.754;2023-05-29T10:27:40;21.40;53.40
22966;DHT22;11649;48.090;9.754;2023-05-29T10:30:15;21.30;54.00
22966;DHT22;11649;48.090;9.754;2023-05-29T10:35:58;21.30;50.80
22966;DHT22;11649;48.090;9.754;2023-05-29T10:38:27;21.30;54.60
22966;DHT22;11649;48.090;9.754;2023-05-29T10:40:54;21.40;54.70
22966;DHT22;11649;48.090;9.754;2023-05-29T10:43:32;21.30;51.20
22966;DHT22;11649;48.090;9.754;2023-05-29T10:46:00;21.40;53.40
22966;DHT22;11649;48.090;9.754;2023-05-29T10:50:57;21.40;48.80
22966;DHT22;11649;48.090;9.754;2023-05-29T10:53:26;21.50;52.30
22966;DHT22;11649;48.090;9.754;2023-05-29T10:55:59;21.50;54.10
22966;DHT22;11649;48.090;9.754;2023-05-29T10:58:27;21.60;57.70
22966;DHT22;11649;48.090;9.754;2023-05-29T11:00:56;21.80;58.30
22966;DHT22;11649;48.090;9.754;2023-05-29T11:03:30;21.70;56.40
22966;DHT22;11649;48.090;9.754;2023-05-29T11:06:01;21.80;57.10
22966;DHT22;11649;48.090;9.754;2023-05-29T11:08:43;21.80;50.90
22966;DHT22;11649;48.090;9.754;2023-05-29T11:11:32;21.70;55.90
22966;DHT22;11649;48.090;9.754;2023-05-29T11:14:03;21.90;56.60
22966;DHT22;11649;48.090;9.754;2023-05-29T11:19:05;22.00;54.70
22966;DHT22;11649;48.090;9.754;2023-05-29T11:21:53;22.00;55.20
22966;DHT22;11649;48.090;9.754;2023-05-29T11:24:26;22.10;57.50
22966;DHT22;11649;48.090;9.754;2023-05-29T11:26:55;21.90;54.30
22966;DHT22;11649;48.090;9.754;2023-05-29T11:29:27;21.90;53.70
22966;DHT22;11649;48.090;9.754;2023-05-29T11:31:58;21.90;53.80
22966;DHT22;11649;48.090;9.754;2023-05-29T11:34:29;21.90;56.80
22966;DHT22;11649;48.090;9.754;2023-05-29T11:36:58;21.90;51.70
22966;DHT22;11649;48.090;9.754;2023-05-29T11:39:26;21.90;54.30
22966;DHT22;11649;48.090;9.754;2023-05-29T11:41:54;21.90;54.30
22966;DHT22;11649;48.090;9.754;2023-05-29T11:44:24;22.00;55.00
22966;DHT22;11649;48.090;9.754;2023-05-29T11:47:06;21.90;53.90
22966;DHT22;11649;48.090;9.754;2023-05-29T11:49:35;22.00;54.50
22966;DHT22;11649;48.090;9.754;2023-05-29T11:52:10;22.10;58.10
22966;DHT22;11649;48.090;9.754;2023-05-29T11:54:43;22.10;54.20
22966;DHT22;11649;48.090;9.754;2023-05-29T11:57:21;22.10;55.90
22966;DHT22;11649;48.090;9.754;2023-05-29T11:59:51;22.10;56.60
22966;DHT22;11649;48.090;9.754;2023-05-29T12:02:25;22.10;57.30
22966;DHT22;11649;48.090;9.754;2023-05-29T12:05:04;22.20;55.30
22966;DHT22;11649;48.090;9.754;2023-05-29T12:07:31;22.10;54.20
22966;DHT22;11649;48.090;9.754;2023-05-29T12:10:12;22.10;53.20
22966;DHT22;11649;48.090;9.754;2023-05-29T12:12:53;22.00;55.00
22966;DHT22;11649;48.090;9.754;2023-05-29T12:15:21;22.10;54.50
22966;DHT22;11649;48.090;9.754;2023-05-29T12:17:49;22.10;51.10
22966;DHT22;11649;48.090;9.754;2023-05-29T12:20:18;22.10;53.10
22966;DHT22;11649;48.090;9.754;2023-05-29T12:22:45;22.20;50.80
22966;DHT22;11649;48.090;9.754;2023-05-29T12:25:19;22.20;54.50
22966;DHT22;11649;48.090;9.754;2023-05-29T12:27:47;22.10;54.90
22966;DHT22;11649;48.090;9.754;2023-05-29T12:30:20;22.20;53.00
22966;DHT22;11649;48.090;9.754;2023-05-29T12:32:59;22.20;54.90
22966;DHT22;11649;48.090;9.754;2023-05-29T12:35:28;22.20;53.50
22966;DHT22;11649;48.090;9.754;2023-05-29T12:38:04;22.30;53.70
22966;DHT22;11649;48.090;9.754;2023-05-29T12:40:33;22.30;50.20
22966;DHT22;11649;48.090;9.754;2023-05-29T12:43:02;22.30;55.20
22966;DHT22;11649;48.090;9.754;2023-05-29T12:45:31;22.40;50.80
22966;DHT22;11649;48.090;9.754;2023-05-29T12:48:03;22.40;52.30
22966;DHT22;11649;48.090;9.754;2023-05-29T12:50:35;22.50;50.70
22966;DHT22;11649;48.090;9.754;2023-05-29T12:53:08;22.30;49.80
22966;DHT22;11649;48.090;9.754;2023-05-29T12:55:37;22.20;50.70
22966;DHT22;11649;48.090;9.754;2023-05-29T12:58:06;22.30;50.00
22966;DHT22;11649;48.090;9.754;2023-05-29T13:00:42;22.30;53.60
22966;DHT22;11649;48.090;9.754;2023-05-29T13:03:09;22.30;52.00
22966;DHT22;11649;48.090;9.754;2023-05-29T13:05:38;22.40;50.00
22966;DHT22;11649;48.090;9.754;2023-05-29T13:08:05;22.40;51.20
22966;DHT22;11649;48.090;9.754;2023-05-29T13:10:34;22.30;50.10
22966;DHT22;11649;48.090;9.754;2023-05-29T13:13:01;22.40;51.80
22966;DHT22;11649;48.090;9.754;2023-05-29T13:15:28;22.40;52.10
22966;DHT22;11649;48.090;9.754;2023-05-29T13:17:55;22.40;52.00
22966;DHT22;11649;48.090;9.754;2023-05-29T13:20:23;22.50;52.10
22966;DHT22;11649;48.090;9.754;2023-05-29T13:22:50;22.70;51.90
22966;DHT22;11649;48.090;9.754;2023-05-29T13:25:18;22.70;51.80
22966;DHT22;11649;48.090;9.754;2023-05-29T13:27:48;22.80;50.30
22966;DHT22;11649;48.090;9.754;2023-05-29T13:30:15;23.00;50.10
22966;DHT22;11649;48.090;9.754;2023-05-29T13:32:42;23.10;49.10
22966;DHT22;11649;48.090;9.754;2023-05-29T13:35:09;23.20;48.70
22966;DHT22;11649;48.090;9.754;2023-05-29T13:37:37;23.20;47.70
22966;DHT22;11649;48.090;9.754;2023-05-29T13:40:05;23.50;48.00
22966;DHT22;11649;48.090;9.754;2023-05-29T13:42:32;23.60;45.00
22966;DHT22;11649;48.090;9.754;2023-05-29T13:44:59;23.80;47.50
22966;DHT22;11649;48.090;9.754;2023-05-29T13:47:26;24.00;45.00
22966;DHT22;11649;48.090;9.754;2023-05-29T13:49:57;24.30;44.20
22966;DHT22;11649;48.090;9.754;2023-05-29T13:52:25;24.70;45.00
22966;DHT22;11649;48.090;9.754;2023-05-29T13:54:53;25.10;45.20
22966;DHT22;11649;48.090;9.754;2023-05-29T13:57:20;25.30;46.50
22966;DHT22;11649;48.090;9.754;2023-05-29T13:59:46;25.60;41.80
22966;DHT22;11649;48.090;9.754;2023-05-29T14:02:13;25.50;44.40
22966;DHT22;11649;48.090;9.754;2023-05-29T14:04:40;25.50;43.30
22966;DHT22;11649;48.090;9.754;2023-05-29T14:07:09;25.70;43.00
22966;DHT22;11649;48.090;9.754;2023-05-29T14:09:36;26.20;44.70
22966;DHT22;11649;48.090;9.754;2023-05-29T14:12:03;26.60;43.30
22966;DHT22;11649;48.090;9.754;2023-05-29T14:14:29;26.70;42.10
22966;DHT22;11649;48.090;9.754;2023-05-29T14:16:56;27.30;41.80
22966;DHT22;11649;48.090;9.754;2023-05-29T14:19:23;27.40;40.70
22966;DHT22;11649;48.090;9.754;2023-05-29T14:21:50;27.30;38.20
22966;DHT22;11649;48.090;9.754;2023-05-29T14:24:17;27.30;38.90
22966;DHT22;11649;48.090;9.754;2023-05-29T14:26:45;27.20;38.70
22966;DHT22;11649;48.090;9.754;2023-05-29T14:29:14;27.10;40.10
22966;DHT22;11649;48.090;9.754;2023-05-29T14:31:42;27.00;38.00
22966;DHT22;11649;48.090;9.754;2023-05-29T14:34:09;27.00;38.80
22966;DHT22;11649;48.090;9.754;2023-05-29T14:36:37;27.30;40.00
22966;DHT22;11649;48.090;9.754;2023-05-29T14:39:04;27.30;38.30
22966;DHT22;11649;48.090;9.754;2023-05-29T14:41:31;27.30;38.30
22966;DHT22;11649;48.090;9.754;2023-05-29T14:43:58;27.50;39.60
22966;DHT22;11649;48.090;9.754;2023-05-29T14:46:25;27.20;39.30
22966;DHT22;11649;48.090;9.754;2023-05-29T14:48:53;27.20;38.70
22966;DHT22;11649;48.090;9.754;2023-05-29T14:51:21;27.00;39.80
22966;DHT22;11649;48.090;9.754;2023-05-29T14:53:47;26.90;40.70
22966;DHT22;11649;48.090;9.754;2023-05-29T14:56:15;26.90;40.50
22966;DHT22;11649;48.090;9.754;2023-05-29T14:58:47;26.80;40.00
22966;DHT22;11649;48.090;9.754;2023-05-29T15:01:17;26.70;38.30
22966;DHT22;11649;48.090;9.754;2023-05-29T15:03:45;26.70;37.50
22966;DHT22;11649;48.090;9.754;2023-05-29T15:06:15;26.60;38.20
22966;DHT22;11649;48.090;9.754;2023-05-29T15:08:41;26.90;37.90
22966;DHT22;11649;48.090;9.754;2023-05-29T15:11:10;26.80;39.20
22966;DHT22;11649;48.090;9.754;2023-05-29T15:13:39;26.70;38.60
22966;DHT22;11649;48.090;9.754;2023-05-29T15:16:06;26.70;39.10
22966;DHT22;11649;48.090;9.754;2023-05-29T15:18:34;26.30;39.40
22966;DHT22;11649;48.090;9.754;2023-05-29T15:21:01;26.70;39.80
22966;DHT22;11649;48.090;9.754;2023-05-29T15:23:27;26.70;38.50
22966;DHT22;11649;48.090;9.754;2023-05-29T15:25:54;26.50;38.20
22966;DHT22;11649;48.090;9.754;2023-05-29T15:28:22;26.60;37.50
22966;DHT22;11649;48.090;9.754;2023-05-29T15:30:48;26.50;39.70
22966;DHT22;11649;48.090;9.754;2023-05-29T15:33:17;26.10;38.10
22966;DHT22;11649;48.090;9.754;2023-05-29T15:35:43;25.80;40.30
22966;DHT22;11649;48.090;9.754;2023-05-29T15:38:13;26.10;40.50
22966;DHT22;11649;48.090;9.754;2023-05-29T15:40:40;26.00;39.90
22966;DHT22;11649;48.090;9.754;2023-05-29T15:43:09;26.10;38.90
22966;DHT22;11649;48.090;9.754;2023-05-29T15:45:36;25.80;39.20
22966;DHT22;11649;48.090;9.754;2023-05-29T15:48:04;25.70;40.00
22966;DHT22;11649;48.090;9.754;2023-05-29T15:50:31;25.70;39.80